createdAt,value
2022-10-17T00:00:37.369Z,13.28
2022-10-17T00:01:39.654Z,13.25
2022-10-17T00:02:41.926Z,13.36
2022-10-17T00:03:44.245Z,13.41
2022-10-17T00:04:46.419Z,13.42
2022-10-17T00:05:48.793Z,13.40
2022-10-17T00:06:51.013Z,13.52
2022-10-17T00:07:53.250Z,13.53
2022-10-17T00:08:55.500Z,13.57
2022-10-17T00:09:57.692Z,13.61
2022-10-17T00:11:03.819Z,13.65
2022-10-17T00:12:05.991Z,13.69
2022-10-17T00:13:09.830Z,13.67
2022-10-17T00:14:12.055Z,13.67
2022-10-17T00:15:19.767Z,13.65
2022-10-17T00:16:30.100Z,13.69
2022-10-17T00:17:32.346Z,13.69
2022-10-17T00:18:34.778Z,13.75
2022-10-17T00:19:36.955Z,13.76
2022-10-17T00:20:39.134Z,13.76
2022-10-17T00:21:41.397Z,13.59
2022-10-17T00:22:43.726Z,13.51
2022-10-17T00:23:46.848Z,13.43
2022-10-17T00:24:49.007Z,13.46
2022-10-17T00:26:01.807Z,13.50
2022-10-17T00:27:03.956Z,13.50
2022-10-17T00:28:09.550Z,13.37
2022-10-17T00:29:11.771Z,13.24
2022-10-17T00:30:15.521Z,13.17
2022-10-17T00:31:19.353Z,13.20
2022-10-17T00:32:21.849Z,13.20
2022-10-17T00:33:24.137Z,13.24
2022-10-17T00:34:28.979Z,13.16
2022-10-17T00:35:32.728Z,13.06
2022-10-17T00:36:34.931Z,13.02
2022-10-17T00:37:37.881Z,13.11
2022-10-17T00:38:42.192Z,13.14
2022-10-17T00:39:44.364Z,13.20
2022-10-17T00:40:46.757Z,13.24
2022-10-17T00:41:51.238Z,13.32
2022-10-17T00:42:53.407Z,13.28
2022-10-17T00:44:04.797Z,13.08
2022-10-17T00:45:20.980Z,13.08
2022-10-17T00:46:27.404Z,13.10
2022-10-17T00:47:30.928Z,13.16
2022-10-17T00:48:33.087Z,13.21
2022-10-17T00:49:36.772Z,13.19
2022-10-17T00:50:41.452Z,13.24
2022-10-17T00:51:49.023Z,13.19
2022-10-17T00:52:57.384Z,13.20
2022-10-17T00:54:01.105Z,13.20
2022-10-17T00:55:12.190Z,13.21
2022-10-17T00:56:15.279Z,13.20
2022-10-17T00:57:19.263Z,13.23
2022-10-17T00:58:21.575Z,13.22
2022-10-17T00:59:24.871Z,13.18
2022-10-17T01:00:27.196Z,13.23
2022-10-17T01:01:29.455Z,13.26
2022-10-17T01:02:33.477Z,13.24
2022-10-17T01:03:35.671Z,13.25
2022-10-17T01:04:40.422Z,13.22
2022-10-17T01:05:43.045Z,13.22
2022-10-17T01:06:45.454Z,13.13
2022-10-17T01:07:51.016Z,13.01
2022-10-17T01:08:53.379Z,12.96
2022-10-17T01:09:55.967Z,12.92
2022-10-17T01:11:21.450Z,12.93
2022-10-17T01:13:11.483Z,12.95
2022-10-17T01:14:22.896Z,13.00
2022-10-17T01:15:56.615Z,12.98
2022-10-17T01:17:18.919Z,12.98
2022-10-17T01:18:49.878Z,13.01
2022-10-17T01:20:10.172Z,13.00
2022-10-17T01:21:18.089Z,13.01
2022-10-17T01:22:31.071Z,12.98
2022-10-17T01:24:06.704Z,13.03
2022-10-17T01:25:29.142Z,13.00
2022-10-17T01:26:50.122Z,12.97
2022-10-17T01:28:19.757Z,13.03
2022-10-17T01:29:33.085Z,13.01
2022-10-17T01:31:04.005Z,13.04
2022-10-17T01:32:39.866Z,13.03
2022-10-17T01:33:48.416Z,12.98
2022-10-17T01:35:11.589Z,13.03
2022-10-17T01:36:31.677Z,12.97
2022-10-17T01:37:38.304Z,13.04
2022-10-17T01:38:50.374Z,13.02
2022-10-17T01:40:14.479Z,13.02
2022-10-17T01:41:44.075Z,13.06
2022-10-17T01:42:56.873Z,13.05
2022-10-17T01:44:05.431Z,13.04
2022-10-17T01:45:21.359Z,13.05
2022-10-17T01:46:36.233Z,12.90
2022-10-17T01:47:39.828Z,12.85
2022-10-17T01:48:45.960Z,12.86
2022-10-17T01:49:51.434Z,12.85
2022-10-17T01:51:01.379Z,12.84
2022-10-17T01:52:11.514Z,12.80
2022-10-17T01:53:24.065Z,12.81
2022-10-17T01:54:39.486Z,12.84
2022-10-17T01:55:46.061Z,12.80
2022-10-17T01:56:52.311Z,12.66
2022-10-17T01:58:36.032Z,12.43
2022-10-17T01:59:47.090Z,12.52
2022-10-17T02:00:54.005Z,12.52
2022-10-17T02:01:58.537Z,12.52
2022-10-17T02:03:05.058Z,12.65
2022-10-17T02:04:09.918Z,12.75
2022-10-17T02:05:12.298Z,12.78
2022-10-17T02:06:15.530Z,12.68
2022-10-17T02:07:17.978Z,12.60
2022-10-17T02:08:28.184Z,12.62
2022-10-17T02:09:31.412Z,12.24
2022-10-17T02:10:38.760Z,12.13
2022-10-17T02:11:50.655Z,12.27
2022-10-17T02:13:23.798Z,12.39
2022-10-17T02:14:40.026Z,12.39
2022-10-17T02:16:06.517Z,12.37
2022-10-17T02:17:19.640Z,12.21
2022-10-17T02:18:51.669Z,12.08
2022-10-17T02:20:10.203Z,12.27
2022-10-17T02:21:33.725Z,12.34
2022-10-17T02:22:48.215Z,12.43
2022-10-17T02:23:53.216Z,12.41
2022-10-17T02:24:55.313Z,12.20
2022-10-17T02:26:15.621Z,12.08
2022-10-17T02:27:47.766Z,12.06
2022-10-17T02:28:52.970Z,12.00
2022-10-17T02:30:20.345Z,11.93
2022-10-17T02:31:29.867Z,11.98
2022-10-17T02:32:38.861Z,11.97
2022-10-17T02:33:45.287Z,12.11
2022-10-17T02:34:50.854Z,12.20
2022-10-17T02:35:57.021Z,12.18
2022-10-17T02:37:02.270Z,12.24
2022-10-17T02:38:07.877Z,12.16
2022-10-17T02:39:12.212Z,12.27
2022-10-17T02:40:17.107Z,12.20
2022-10-17T02:41:20.128Z,12.20
2022-10-17T02:42:24.651Z,12.17
2022-10-17T02:43:28.000Z,12.11
2022-10-17T02:44:32.301Z,12.14
2022-10-17T02:45:37.147Z,12.24
2022-10-17T02:46:42.514Z,12.32
2022-10-17T02:47:55.556Z,12.23
2022-10-17T02:49:13.782Z,12.26
2022-10-17T02:50:16.179Z,12.33
2022-10-17T02:51:47.061Z,12.24
2022-10-17T02:52:59.123Z,12.35
2022-10-17T02:54:25.842Z,12.29
2022-10-17T02:55:36.175Z,12.12
2022-10-17T02:56:46.622Z,12.01
2022-10-17T02:57:53.990Z,11.96
2022-10-17T02:58:58.711Z,11.82
2022-10-17T03:00:03.823Z,11.98
2022-10-17T03:01:06.951Z,12.07
2022-10-17T03:02:09.259Z,12.14
2022-10-17T03:03:26.118Z,12.20
2022-10-17T03:04:28.359Z,12.28
2022-10-17T03:05:30.529Z,12.16
2022-10-17T03:06:32.791Z,12.17
2022-10-17T03:07:35.031Z,12.25
2022-10-17T03:09:40.400Z,12.15
2022-10-17T03:10:42.715Z,12.19
2022-10-17T03:11:44.888Z,12.22
2022-10-17T03:12:47.140Z,12.22
2022-10-17T03:13:49.418Z,12.11
2022-10-17T03:14:52.376Z,11.97
2022-10-17T03:15:57.085Z,12.07
2022-10-17T03:16:59.254Z,12.06
2022-10-17T03:18:02.047Z,12.08
2022-10-17T03:19:04.425Z,12.09
2022-10-17T03:20:07.890Z,11.88
2022-10-17T03:21:10.294Z,11.83
2022-10-17T03:22:12.478Z,11.86
2022-10-17T03:23:16.972Z,11.95
2022-10-17T03:24:19.168Z,11.89
2022-10-17T03:25:21.454Z,12.00
2022-10-17T03:26:25.052Z,12.06
2022-10-17T03:27:27.792Z,11.94
2022-10-17T03:28:30.294Z,11.93
2022-10-17T03:29:32.507Z,11.97
2022-10-17T03:30:34.772Z,12.01
2022-10-17T03:31:37.677Z,12.04
2022-10-17T03:32:41.628Z,12.09
2022-10-17T03:33:43.999Z,12.11
2022-10-17T03:34:46.201Z,12.16
2022-10-17T03:35:51.102Z,12.05
2022-10-17T03:36:53.627Z,12.07
2022-10-17T03:37:56.410Z,11.86
2022-10-17T03:38:59.856Z,11.90
2022-10-17T03:40:03.607Z,11.97
2022-10-17T03:41:07.313Z,11.93
2022-10-17T03:42:11.311Z,11.96
2022-10-17T03:43:14.177Z,12.02
2022-10-17T03:44:17.046Z,11.97
2022-10-17T03:45:19.214Z,11.82
2022-10-17T03:46:22.602Z,11.67
2022-10-17T03:47:24.772Z,11.78
2022-10-17T03:48:28.203Z,11.82
2022-10-17T03:49:30.382Z,11.87
2022-10-17T03:50:32.549Z,11.93
2022-10-17T03:51:35.843Z,11.83
2022-10-17T03:52:47.209Z,11.90
2022-10-17T03:53:49.387Z,11.94
2022-10-17T03:54:51.860Z,12.01
2022-10-17T03:55:54.285Z,12.09
2022-10-17T03:57:59.842Z,12.05
2022-10-17T03:59:02.032Z,12.16
2022-10-17T04:00:06.547Z,12.13
2022-10-17T04:01:18.321Z,12.14
2022-10-17T04:02:21.833Z,12.08
2022-10-17T04:03:24.993Z,12.03
2022-10-17T04:04:27.264Z,12.06
2022-10-17T04:05:29.487Z,12.03
2022-10-17T04:06:32.498Z,12.03
2022-10-17T04:07:37.181Z,12.07
2022-10-17T04:08:40.645Z,12.07
2022-10-17T04:09:47.826Z,12.06
2022-10-17T04:11:02.183Z,12.07
2022-10-17T04:12:04.434Z,12.05
2022-10-17T04:13:08.215Z,12.10
2022-10-17T04:14:10.576Z,12.11
2022-10-17T04:15:14.859Z,12.12
2022-10-17T04:16:17.237Z,12.15
2022-10-17T04:17:37.337Z,12.13
2022-10-17T04:18:42.281Z,12.05
2022-10-17T04:19:44.608Z,11.98
2022-10-17T04:20:49.402Z,11.99
2022-10-17T04:21:51.914Z,12.01
2022-10-17T04:22:55.131Z,12.04
2022-10-17T04:23:59.194Z,12.02
2022-10-17T04:25:21.959Z,12.02
2022-10-17T04:26:26.582Z,12.02
2022-10-17T04:27:28.874Z,12.04
2022-10-17T04:28:32.892Z,12.04
2022-10-17T04:29:35.459Z,12.07
2022-10-17T04:31:07.798Z,12.12
2022-10-17T04:32:19.816Z,12.11
2022-10-17T04:33:54.235Z,12.13
2022-10-17T04:34:56.531Z,12.17
2022-10-17T04:36:01.397Z,12.13
2022-10-17T04:37:03.581Z,12.15
2022-10-17T04:38:05.764Z,12.15
2022-10-17T04:39:08.041Z,12.11
2022-10-17T04:40:11.694Z,12.16
2022-10-17T04:41:17.158Z,12.14
2022-10-17T04:42:19.410Z,12.20
2022-10-17T04:43:22.795Z,12.16
2022-10-17T04:44:25.036Z,12.13
2022-10-17T04:45:28.123Z,12.18
2022-10-17T04:46:34.817Z,12.16
2022-10-17T04:47:37.126Z,12.16
2022-10-17T04:48:40.163Z,12.15
2022-10-17T04:49:42.457Z,12.18
2022-10-17T04:50:59.955Z,12.16
2022-10-17T04:52:11.646Z,12.12
2022-10-17T04:53:19.098Z,12.12
2022-10-17T04:54:21.692Z,12.13
2022-10-17T04:55:29.604Z,12.14
2022-10-17T04:56:32.306Z,12.17
2022-10-17T04:57:35.671Z,11.97
2022-10-17T04:58:46.510Z,11.83
2022-10-17T04:59:49.356Z,11.83
2022-10-17T05:01:06.289Z,11.84
2022-10-17T05:02:08.508Z,11.80
2022-10-17T05:03:12.692Z,11.88
2022-10-17T05:04:14.922Z,11.95
2022-10-17T05:05:17.189Z,12.02
2022-10-17T05:06:23.931Z,12.06
2022-10-17T05:07:44.623Z,12.04
2022-10-17T05:08:51.665Z,12.11
2022-10-17T05:09:55.816Z,12.13
2022-10-17T05:12:04.303Z,12.11
2022-10-17T05:13:10.838Z,12.08
2022-10-17T05:14:13.020Z,12.12
2022-10-17T05:15:15.434Z,12.17
2022-10-17T05:16:17.762Z,12.13
2022-10-17T05:17:19.990Z,12.04
2022-10-17T05:18:22.203Z,11.95
2022-10-17T05:19:24.430Z,11.94
2022-10-17T05:20:27.382Z,11.92
2022-10-17T05:21:30.359Z,11.68
2022-10-17T05:22:32.826Z,11.73
2022-10-17T05:23:35.621Z,11.76
2022-10-17T05:24:37.869Z,11.82
2022-10-17T05:25:40.072Z,11.91
2022-10-17T05:26:42.274Z,11.87
2022-10-17T05:27:44.592Z,11.66
2022-10-17T05:28:46.951Z,11.72
2022-10-17T05:29:49.921Z,11.79
2022-10-17T05:31:03.137Z,11.86
2022-10-17T05:32:05.997Z,11.63
2022-10-17T05:33:09.671Z,11.47
2022-10-17T05:34:13.935Z,11.54
2022-10-17T05:35:17.235Z,11.62
2022-10-17T05:36:19.485Z,11.65
2022-10-17T05:37:22.251Z,11.66
2022-10-17T05:38:27.954Z,11.67
2022-10-17T05:39:30.675Z,11.62
2022-10-17T05:40:34.168Z,11.61
2022-10-17T05:41:36.451Z,11.43
2022-10-17T05:43:46.718Z,11.31
2022-10-17T05:44:53.489Z,11.24
2022-10-17T05:45:55.999Z,11.26
2022-10-17T05:46:58.279Z,11.30
2022-10-17T05:48:00.478Z,11.29
2022-10-17T05:49:14.715Z,11.30
2022-10-17T05:50:26.033Z,11.40
2022-10-17T05:51:54.428Z,11.45
2022-10-17T05:52:56.637Z,11.54
2022-10-17T05:53:58.831Z,11.60
2022-10-17T05:55:04.818Z,11.68
2022-10-17T05:56:09.516Z,11.74
2022-10-17T05:57:12.543Z,11.74
2022-10-17T05:58:22.192Z,11.74
2022-10-17T05:59:29.317Z,11.73
2022-10-17T06:00:42.508Z,11.57
2022-10-17T06:01:45.051Z,11.66
2022-10-17T06:02:47.769Z,11.69
2022-10-17T06:03:51.741Z,11.75
2022-10-17T06:04:54.736Z,11.86
2022-10-17T06:06:11.115Z,11.95
2022-10-17T06:07:16.922Z,12.05
2022-10-17T06:08:20.225Z,11.93
2022-10-17T06:09:23.636Z,11.88
2022-10-17T06:10:28.368Z,11.98
2022-10-17T06:11:31.537Z,12.04
2022-10-17T06:12:34.805Z,12.10
2022-10-17T06:13:38.413Z,12.06
2022-10-17T06:14:46.326Z,12.12
2022-10-17T06:15:49.608Z,12.14
2022-10-17T06:16:51.934Z,12.20
2022-10-17T06:17:54.132Z,12.23
2022-10-17T06:18:56.362Z,12.24
2022-10-17T06:20:00.365Z,12.30
2022-10-17T06:21:08.650Z,12.31
2022-10-17T06:22:13.288Z,12.34
2022-10-17T06:23:16.487Z,12.35
2022-10-17T06:24:42.270Z,12.12
2022-10-17T06:25:44.624Z,12.09
2022-10-17T06:26:49.764Z,12.11
2022-10-17T06:28:57.028Z,12.15
2022-10-17T06:30:01.371Z,12.25
2022-10-17T06:31:10.112Z,12.35
2022-10-17T06:32:14.920Z,12.29
2022-10-17T06:33:20.722Z,12.42
2022-10-17T06:34:23.315Z,12.55
2022-10-17T06:35:25.536Z,12.72
2022-10-17T06:36:27.703Z,12.81
2022-10-17T06:37:36.580Z,12.92
2022-10-17T06:38:42.405Z,13.06
2022-10-17T06:39:53.060Z,13.20
2022-10-17T06:41:14.193Z,13.32
2022-10-17T06:42:16.905Z,13.40
2022-10-17T06:43:51.569Z,13.55
2022-10-17T06:45:13.431Z,13.65
2022-10-17T06:46:29.723Z,13.75
2022-10-17T06:47:37.829Z,13.85
2022-10-17T06:48:53.759Z,14.11
2022-10-17T06:50:14.627Z,14.19
2022-10-17T06:51:26.128Z,14.32
2022-10-17T06:52:30.992Z,14.43
2022-10-17T06:53:53.513Z,14.59
2022-10-17T06:55:04.610Z,14.67
2022-10-17T06:56:15.578Z,14.69
2022-10-17T06:57:44.117Z,14.93
2022-10-17T06:59:10.502Z,14.80
2022-10-17T07:00:15.156Z,14.55
2022-10-17T07:01:22.416Z,14.55
2022-10-17T07:02:27.776Z,14.54
2022-10-17T07:03:32.885Z,14.43
2022-10-17T07:04:36.100Z,14.33
2022-10-17T07:05:38.326Z,14.16
2022-10-17T07:06:40.873Z,14.07
2022-10-17T07:07:55.881Z,14.17
2022-10-17T07:08:58.309Z,14.11
2022-10-17T07:10:00.639Z,14.17
2022-10-17T07:11:14.860Z,14.31
2022-10-17T07:12:17.520Z,14.61
2022-10-17T07:13:21.238Z,14.64
2022-10-17T07:14:23.492Z,14.78
2022-10-17T07:15:26.210Z,14.68
2022-10-17T07:16:29.107Z,14.78
2022-10-17T07:17:52.798Z,14.76
2022-10-17T07:18:55.633Z,14.81
2022-10-17T07:19:58.121Z,14.84
2022-10-17T07:21:01.110Z,14.84
2022-10-17T07:22:03.610Z,14.78
2022-10-17T07:23:07.482Z,14.66
2022-10-17T07:24:09.905Z,14.67
2022-10-17T07:25:13.146Z,14.67
2022-10-17T07:26:23.648Z,14.71
2022-10-17T07:27:25.964Z,14.74
2022-10-17T07:28:28.920Z,14.79
2022-10-17T07:29:34.861Z,14.83
2022-10-17T07:31:03.541Z,15.19
2022-10-17T07:32:08.491Z,15.43
2022-10-17T07:33:10.845Z,15.65
2022-10-17T07:34:13.020Z,15.73
2022-10-17T07:35:16.008Z,15.85
2022-10-17T07:36:19.169Z,15.99
2022-10-17T07:37:21.950Z,16.06
2022-10-17T07:38:30.019Z,16.07
2022-10-17T07:39:32.378Z,16.07
2022-10-17T07:40:34.692Z,16.01
2022-10-17T07:41:37.622Z,16.11
2022-10-17T07:43:48.530Z,16.54
2022-10-17T07:44:54.995Z,16.65
2022-10-17T07:45:58.261Z,16.78
2022-10-17T07:47:00.609Z,16.81
2022-10-17T07:48:02.895Z,16.95
2022-10-17T07:49:06.287Z,17.14
2022-10-17T07:50:09.513Z,17.18
2022-10-17T07:51:11.711Z,17.20
2022-10-17T07:52:15.598Z,17.21
2022-10-17T07:53:17.948Z,17.37
2022-10-17T07:54:20.138Z,17.32
2022-10-17T07:55:22.328Z,17.35
2022-10-17T07:56:24.775Z,17.30
2022-10-17T07:57:26.981Z,17.30
2022-10-17T07:58:31.166Z,17.28
2022-10-17T07:59:34.455Z,17.29
2022-10-17T08:00:37.283Z,17.58
2022-10-17T08:01:39.590Z,17.70
2022-10-17T08:02:41.814Z,17.94
2022-10-17T08:03:45.069Z,17.95
2022-10-17T08:04:47.244Z,17.80
2022-10-17T08:05:49.488Z,17.89
2022-10-17T08:06:56.447Z,17.91
2022-10-17T08:08:02.742Z,17.80
2022-10-17T08:09:04.947Z,18.07
2022-10-17T08:11:13.487Z,18.00
2022-10-17T08:12:15.735Z,17.86
2022-10-17T08:13:17.912Z,17.78
2022-10-17T08:14:20.039Z,17.87
2022-10-17T08:15:24.854Z,18.05
2022-10-17T08:16:27.960Z,18.48
2022-10-17T08:17:30.171Z,18.85
2022-10-17T08:18:32.904Z,18.75
2022-10-17T08:19:38.429Z,18.51
2022-10-17T08:20:41.827Z,18.52
2022-10-17T08:21:45.009Z,18.61
2022-10-17T08:22:54.425Z,18.78
2022-10-17T08:23:56.883Z,18.88
2022-10-17T08:24:59.304Z,18.87
2022-10-17T08:26:03.644Z,19.10
2022-10-17T08:27:11.272Z,19.20
2022-10-17T08:28:13.697Z,19.24
2022-10-17T08:29:16.791Z,19.07
2022-10-17T08:30:18.939Z,19.22
2022-10-17T08:31:21.440Z,19.36
2022-10-17T08:32:26.335Z,19.13
2022-10-17T08:33:28.513Z,19.15
2022-10-17T08:34:30.729Z,19.58
2022-10-17T08:35:33.089Z,19.51
2022-10-17T08:36:35.248Z,19.66
2022-10-17T08:37:37.484Z,19.91
2022-10-17T08:38:43.066Z,19.87
2022-10-17T08:39:45.799Z,19.87
2022-10-17T08:40:49.462Z,20.00
2022-10-17T08:42:21.681Z,20.13
2022-10-17T08:43:35.334Z,20.10
2022-10-17T08:44:51.599Z,19.95
2022-10-17T08:46:04.960Z,20.21
2022-10-17T08:47:14.867Z,20.26
2022-10-17T08:48:20.558Z,20.42
2022-10-17T08:49:31.993Z,20.38
2022-10-17T08:50:40.368Z,20.50
2022-10-17T08:51:58.626Z,20.36
2022-10-17T08:53:22.368Z,20.46
2022-10-17T08:54:41.320Z,20.50
2022-10-17T08:55:48.789Z,20.63
2022-10-17T08:56:54.347Z,20.87
2022-10-17T08:57:56.564Z,21.13
2022-10-17T08:58:58.740Z,21.20
2022-10-17T09:00:00.910Z,21.14
2022-10-17T09:01:12.731Z,21.46
2022-10-17T09:02:24.300Z,21.51
2022-10-17T09:03:38.569Z,21.35
2022-10-17T09:04:57.297Z,21.40
2022-10-17T09:06:18.092Z,21.22
2022-10-17T09:07:44.004Z,21.39
2022-10-17T09:09:01.674Z,21.41
2022-10-17T09:10:26.287Z,21.74
2022-10-17T09:11:54.424Z,21.83
2022-10-17T09:13:34.029Z,21.50
2022-10-17T09:14:54.213Z,21.22
2022-10-17T09:16:14.857Z,21.40
2022-10-17T09:17:44.627Z,21.79
2022-10-17T09:18:58.964Z,21.86
2022-10-17T09:20:10.924Z,21.81
2022-10-17T09:21:25.062Z,21.63
2022-10-17T09:22:37.470Z,21.55
2022-10-17T09:23:53.312Z,21.86
2022-10-17T09:25:06.855Z,22.15
2022-10-17T09:26:11.436Z,21.89
2022-10-17T09:27:38.460Z,21.59
2022-10-17T09:28:42.753Z,21.39
2022-10-17T09:29:48.686Z,21.45
2022-10-17T09:30:59.509Z,21.53
2022-10-17T09:32:05.227Z,21.65
2022-10-17T09:33:28.173Z,21.78
2022-10-17T09:34:36.672Z,21.68
2022-10-17T09:35:41.862Z,21.77
2022-10-17T09:36:44.122Z,21.74
2022-10-17T09:37:47.113Z,21.70
2022-10-17T09:39:12.848Z,21.93
2022-10-17T09:40:22.615Z,22.45
2022-10-17T09:41:45.438Z,22.44
2022-10-17T09:42:51.202Z,22.53
2022-10-17T09:43:57.231Z,22.20
2022-10-17T09:45:19.344Z,22.08
2022-10-17T09:46:30.190Z,22.36
2022-10-17T09:47:42.475Z,22.12
2022-10-17T09:49:16.441Z,22.24
2022-10-17T09:50:28.947Z,22.25
2022-10-17T09:51:32.337Z,22.22
2022-10-17T09:52:40.315Z,22.12
2022-10-17T09:53:49.329Z,22.38
2022-10-17T09:54:55.548Z,22.49
2022-10-17T09:56:01.180Z,22.30
2022-10-17T09:57:06.835Z,22.06
2022-10-17T09:58:10.393Z,22.26
2022-10-17T09:59:13.914Z,22.87
2022-10-17T10:00:23.291Z,23.27
2022-10-17T10:01:28.137Z,23.11
2022-10-17T10:02:33.558Z,22.70
2022-10-17T10:03:35.927Z,22.45
2022-10-17T10:05:06.289Z,22.33
2022-10-17T10:06:19.033Z,22.43
2022-10-17T10:07:25.628Z,22.62
2022-10-17T10:08:54.915Z,22.28
2022-10-17T10:09:58.806Z,22.54
2022-10-17T10:11:04.859Z,22.72
2022-10-17T10:12:18.534Z,23.10
2022-10-17T10:13:20.724Z,23.45
2022-10-17T10:14:28.490Z,23.86
2022-10-17T10:15:34.699Z,24.00
2022-10-17T10:16:48.174Z,24.20
2022-10-17T10:17:50.377Z,24.21
2022-10-17T10:18:52.784Z,24.34
2022-10-17T10:19:55.288Z,24.28
2022-10-17T10:21:21.004Z,24.13
2022-10-17T10:22:23.804Z,24.13
2022-10-17T10:23:25.979Z,23.77
2022-10-17T10:24:31.042Z,23.27
2022-10-17T10:25:34.960Z,23.18
2022-10-17T10:26:44.857Z,23.71
2022-10-17T10:27:47.482Z,23.98
2022-10-17T10:28:56.606Z,23.85
2022-10-17T10:29:59.111Z,24.01
2022-10-17T10:31:05.199Z,23.93
2022-10-17T10:32:16.317Z,24.23
2022-10-17T10:33:25.614Z,23.99
2022-10-17T10:35:36.706Z,23.74
2022-10-17T10:36:52.243Z,23.48
2022-10-17T10:37:57.765Z,23.40
2022-10-17T10:39:02.451Z,23.43
2022-10-17T10:40:18.448Z,24.00
2022-10-17T10:41:21.571Z,24.23
2022-10-17T10:42:39.319Z,24.19
2022-10-17T10:43:45.215Z,24.55
2022-10-17T10:44:48.906Z,24.77
2022-10-17T10:45:52.511Z,24.87
2022-10-17T10:47:28.762Z,24.82
2022-10-17T10:48:36.931Z,24.90
2022-10-17T10:49:39.521Z,25.04
2022-10-17T10:50:48.159Z,25.07
2022-10-17T10:51:50.583Z,25.14
2022-10-17T10:53:04.665Z,25.13
2022-10-17T10:54:32.436Z,25.08
2022-10-17T10:55:40.759Z,25.09
2022-10-17T10:57:12.976Z,24.96
2022-10-17T10:58:48.967Z,24.96
2022-10-17T11:00:13.020Z,24.46
2022-10-17T11:01:37.002Z,24.53
2022-10-17T11:02:54.775Z,24.54
2022-10-17T11:04:10.103Z,24.56
2022-10-17T11:05:34.816Z,24.25
2022-10-17T11:06:41.834Z,24.47
2022-10-17T11:07:52.301Z,24.50
2022-10-17T11:09:33.783Z,24.17
2022-10-17T11:11:23.688Z,24.03
2022-10-17T11:12:36.693Z,24.43
2022-10-17T11:14:03.543Z,24.36
2022-10-17T11:15:44.021Z,24.40
2022-10-17T11:16:50.033Z,24.53
2022-10-17T11:17:56.777Z,24.53
2022-10-17T11:19:09.631Z,24.39
2022-10-17T11:20:41.677Z,24.24
2022-10-17T11:21:48.429Z,24.22
2022-10-17T11:23:05.573Z,24.37
2022-10-17T11:24:13.975Z,24.46
2022-10-17T11:25:34.431Z,24.58
2022-10-17T11:26:52.281Z,24.58
2022-10-17T11:27:54.570Z,24.65
2022-10-17T11:28:58.710Z,24.70
2022-10-17T11:30:01.724Z,24.77
2022-10-17T11:31:08.554Z,24.79
2022-10-17T11:32:25.359Z,24.96
2022-10-17T11:33:35.396Z,25.00
2022-10-17T11:34:50.888Z,24.94
2022-10-17T11:35:58.859Z,24.97
2022-10-17T11:37:09.617Z,25.02
2022-10-17T11:38:30.118Z,25.02
2022-10-17T11:40:51.768Z,25.09
2022-10-17T11:42:06.601Z,25.09
2022-10-17T11:43:12.703Z,25.10
2022-10-17T11:44:36.712Z,24.72
2022-10-17T11:45:50.027Z,24.61
2022-10-17T11:47:02.284Z,24.69
2022-10-17T11:48:11.147Z,24.67
2022-10-17T11:49:20.594Z,24.69
2022-10-17T11:52:05.454Z,24.62
2022-10-17T11:53:13.845Z,24.72
2022-10-17T11:54:35.671Z,24.54
2022-10-17T11:55:39.258Z,24.51
2022-10-17T11:57:02.697Z,24.50
2022-10-17T11:58:19.228Z,24.49
2022-10-17T11:59:33.250Z,24.63
2022-10-17T12:00:42.168Z,24.05
2022-10-17T12:01:52.693Z,24.25
2022-10-17T12:03:16.781Z,24.21
2022-10-17T12:04:33.938Z,24.23
2022-10-17T12:05:56.957Z,24.16
2022-10-17T12:07:30.161Z,23.96
2022-10-17T12:08:41.317Z,24.13
2022-10-17T12:10:07.307Z,24.30
2022-10-17T12:11:29.393Z,24.19
2022-10-17T12:12:35.707Z,24.20
2022-10-17T12:13:37.815Z,24.38
2022-10-17T12:14:48.713Z,24.55
2022-10-17T12:15:50.883Z,24.64
2022-10-17T12:16:53.867Z,24.28
2022-10-17T12:17:58.241Z,24.20
2022-10-17T12:19:00.290Z,23.90
2022-10-17T12:20:27.377Z,24.11
2022-10-17T12:22:02.245Z,24.21
2022-10-17T12:23:13.239Z,24.07
2022-10-17T12:24:32.919Z,23.96
2022-10-17T12:26:46.589Z,23.91
2022-10-17T12:27:50.509Z,23.94
2022-10-17T12:28:53.303Z,23.90
2022-10-17T12:30:01.227Z,24.03
2022-10-17T12:31:12.989Z,23.95
2022-10-17T12:32:15.751Z,23.94
2022-10-17T12:33:26.684Z,23.96
2022-10-17T12:34:29.012Z,23.98
2022-10-17T12:35:34.110Z,23.66
2022-10-17T12:36:37.784Z,23.76
2022-10-17T12:37:42.759Z,23.74
2022-10-17T12:38:49.940Z,23.78
2022-10-17T12:39:52.485Z,23.85
2022-10-17T12:41:00.247Z,24.10
2022-10-17T12:42:02.452Z,24.25
2022-10-17T12:43:13.509Z,23.85
2022-10-17T12:44:21.280Z,23.82
2022-10-17T12:45:49.752Z,23.77
2022-10-17T12:47:09.755Z,23.74
2022-10-17T12:48:12.415Z,23.73
2022-10-17T12:49:39.451Z,23.84
2022-10-17T12:52:29.670Z,24.19
2022-10-17T12:53:57.259Z,24.24
2022-10-17T12:55:13.164Z,24.11
2022-10-17T12:56:22.039Z,23.98
2022-10-17T12:57:34.646Z,23.98
2022-10-17T12:58:37.064Z,23.96
2022-10-17T12:59:44.018Z,23.93
2022-10-17T13:01:18.956Z,23.90
2022-10-17T13:02:21.677Z,23.93
2022-10-17T13:03:31.884Z,24.11
2022-10-17T13:04:36.494Z,24.04
2022-10-17T13:05:41.654Z,24.18
2022-10-17T13:06:47.951Z,24.10
2022-10-17T13:07:52.013Z,23.89
2022-10-17T13:09:04.040Z,23.99
2022-10-17T13:10:20.216Z,24.13
2022-10-17T13:11:28.878Z,24.16
2022-10-17T13:12:40.257Z,24.18
2022-10-17T13:13:45.253Z,23.96
2022-10-17T13:14:50.099Z,23.95
2022-10-17T13:15:54.319Z,23.95
2022-10-17T13:16:58.294Z,23.76
2022-10-17T13:18:01.339Z,23.77
2022-10-17T13:19:16.821Z,24.01
2022-10-17T13:20:25.538Z,23.93
2022-10-17T13:21:31.563Z,24.04
2022-10-17T13:22:33.880Z,24.23
2022-10-17T13:23:37.807Z,24.31
2022-10-17T13:24:41.024Z,24.28
2022-10-17T13:25:43.332Z,24.25
2022-10-17T13:26:45.980Z,24.29
2022-10-17T13:27:49.656Z,24.40
2022-10-17T13:29:11.934Z,24.44
2022-10-17T13:30:34.936Z,24.60
2022-10-17T13:31:40.721Z,24.58
2022-10-17T13:32:45.004Z,24.65
2022-10-17T13:33:47.283Z,24.67
2022-10-17T13:35:13.224Z,24.55
2022-10-17T13:36:16.211Z,24.67
2022-10-17T13:37:18.420Z,24.70
2022-10-17T13:38:26.099Z,24.52
2022-10-17T13:39:45.621Z,24.47
2022-10-17T13:41:05.824Z,24.38
2022-10-17T13:42:29.599Z,24.11
2022-10-17T13:43:32.478Z,24.20
2022-10-17T13:44:36.546Z,24.30
2022-10-17T13:45:40.236Z,24.48
2022-10-17T13:46:43.387Z,24.71
2022-10-17T13:47:46.425Z,24.69
2022-10-17T13:48:49.475Z,24.81
2022-10-17T13:49:55.194Z,24.84
2022-10-17T13:51:03.013Z,24.78
2022-10-17T13:52:14.621Z,24.86
2022-10-17T13:53:25.541Z,24.89
2022-10-17T13:54:41.176Z,24.93
2022-10-17T13:56:22.955Z,25.00
2022-10-17T13:57:31.240Z,24.89
2022-10-17T13:58:43.239Z,24.63
2022-10-17T13:59:50.428Z,24.43
2022-10-17T14:00:53.739Z,24.47
2022-10-17T14:01:56.991Z,24.58
2022-10-17T14:02:59.346Z,24.65
2022-10-17T14:04:08.775Z,24.70
2022-10-17T14:05:20.525Z,24.83
2022-10-17T14:06:26.756Z,24.85
2022-10-17T14:08:09.348Z,24.81
2022-10-17T14:09:06.568Z,24.82
2022-10-17T14:10:38.775Z,24.87
2022-10-17T14:11:44.079Z,24.92
2022-10-17T14:12:50.357Z,24.95
2022-10-17T14:13:54.975Z,24.97
2022-10-17T14:15:12.448Z,25.02
2022-10-17T14:16:15.009Z,24.72
2022-10-17T14:17:26.413Z,24.69
2022-10-17T14:18:35.978Z,24.78
2022-10-17T14:19:38.719Z,24.55
2022-10-17T14:21:31.811Z,24.42
2022-10-17T14:22:27.198Z,24.45
2022-10-17T14:23:33.578Z,24.48
2022-10-17T14:24:35.962Z,24.54
2022-10-17T14:25:40.468Z,24.53
2022-10-17T14:26:59.611Z,24.47
2022-10-17T14:28:07.852Z,24.63
2022-10-17T14:29:32.646Z,24.24
2022-10-17T14:30:55.613Z,24.43
2022-10-17T14:32:01.550Z,24.27
2022-10-17T14:33:13.736Z,24.30
2022-10-17T14:34:21.938Z,24.38
2022-10-17T14:35:41.096Z,24.53
2022-10-17T14:36:53.184Z,24.61
2022-10-17T14:38:04.247Z,24.70
2022-10-17T14:39:17.901Z,24.42
2022-10-17T14:40:25.629Z,24.18
2022-10-17T14:41:43.488Z,24.43
2022-10-17T14:42:48.072Z,24.42
2022-10-17T14:44:15.679Z,24.22
2022-10-17T14:45:39.937Z,24.41
2022-10-17T14:46:49.743Z,24.20
2022-10-17T14:47:55.011Z,24.25
2022-10-17T14:49:04.560Z,24.52
2022-10-17T14:50:12.615Z,24.62
2022-10-17T14:51:17.570Z,24.53
2022-10-17T14:52:19.653Z,24.42
2022-10-17T14:53:21.946Z,24.31
2022-10-17T14:54:27.225Z,24.15
2022-10-17T14:55:31.764Z,24.23
2022-10-17T14:56:42.548Z,24.33
2022-10-17T14:57:45.871Z,24.48
2022-10-17T14:58:48.042Z,24.63
2022-10-17T14:59:55.044Z,24.49
2022-10-17T15:00:59.402Z,24.50